Mount Gretna, Pennsylvania
Current Conditions -  °F | °C
As of 7:53 AM on Thursday 18 Dec 2014 (Local Time) from KLNS Reporting Station
Overcast Overcast  
Wind Chill: 23°   Ceiling: 3700
Heat Index: 33°   Visibility: 10mi
Dew Point: 20°   Wind: 15mph
Humidity: 59%   Direction: 300°WNW
Pressure: 30.08"   Gusts: 24mph
Location:  40.25°N, 76.47°W
Report Text: KLNS 181253Z 30013G21KT 10SM OVC037 01/M07 A3008 RMK AO2 SLP189 T00061067
Loading
Personal Weather Stations






























Interactive Weather Map New forecast layout! Learn more

10-Day Weather Forecast

Advertisements
Track Severe Weather on mobile